createdAt,value
2023-02-17T00:01:39.489Z,7.00
2023-02-17T00:04:07.596Z,7.00
2023-02-17T00:06:35.710Z,7.00
2023-02-17T00:09:05.423Z,7.00
2023-02-17T00:11:33.973Z,7.10
2023-02-17T00:14:02.055Z,7.00
2023-02-17T00:16:30.968Z,7.00
2023-02-17T00:19:02.375Z,7.00
2023-02-17T00:21:33.146Z,6.90
2023-02-17T00:24:02.008Z,7.00
2023-02-17T00:26:31.595Z,7.00
2023-02-17T00:29:00.071Z,7.00
2023-02-17T00:31:28.470Z,7.00
2023-02-17T00:33:57.591Z,6.90
2023-02-17T00:36:27.565Z,6.90
2023-02-17T00:38:58.625Z,6.90
2023-02-17T00:41:28.961Z,6.90
2023-02-17T00:43:58.683Z,6.90
2023-02-17T00:46:27.944Z,7.00
2023-02-17T00:48:56.331Z,7.00
2023-02-17T00:51:25.742Z,7.00
2023-02-17T00:53:54.072Z,7.00
2023-02-17T00:56:22.242Z,7.10
2023-02-17T00:58:50.320Z,7.10
2023-02-17T01:01:19.934Z,7.10
2023-02-17T01:03:48.072Z,7.30
2023-02-17T01:06:25.783Z,7.30
2023-02-17T01:08:54.275Z,7.40
2023-02-17T01:11:25.190Z,7.40
2023-02-17T01:13:54.256Z,7.30
2023-02-17T01:16:28.043Z,7.30
2023-02-17T01:18:57.049Z,7.30
2023-02-17T01:21:28.532Z,7.30
2023-02-17T01:23:59.592Z,7.30
2023-02-17T01:26:30.803Z,7.30
2023-02-17T01:28:59.786Z,7.40
2023-02-17T01:31:29.996Z,7.40
2023-02-17T01:34:02.151Z,7.50
2023-02-17T01:36:30.952Z,7.50
2023-02-17T01:38:59.271Z,7.50
2023-02-17T01:41:29.592Z,7.60
2023-02-17T01:44:15.601Z,7.60
2023-02-17T01:46:47.879Z,7.60
2023-02-17T01:49:32.715Z,7.60
2023-02-17T01:52:10.718Z,7.60
2023-02-17T01:54:45.604Z,7.70
2023-02-17T01:57:17.611Z,7.70
2023-02-17T01:59:46.907Z,7.70
2023-02-17T02:02:17.573Z,7.80
2023-02-17T02:04:52.370Z,7.80
2023-02-17T02:07:27.761Z,7.80
2023-02-17T02:09:58.568Z,7.90
2023-02-17T02:12:29.040Z,7.90
2023-02-17T02:15:02.872Z,7.90
2023-02-17T02:17:49.836Z,7.90
2023-02-17T02:20:47.222Z,7.90
2023-02-17T02:23:36.235Z,8.00
2023-02-17T02:27:11.583Z,8.10
2023-02-17T02:30:21.768Z,8.10
2023-02-17T02:33:00.876Z,8.10
2023-02-17T02:35:40.833Z,8.10
2023-02-17T02:38:17.186Z,8.10
2023-02-17T02:40:53.566Z,8.10
2023-02-17T02:43:24.546Z,8.10
2023-02-17T02:45:52.766Z,8.10
2023-02-17T02:48:22.497Z,8.10
2023-02-17T02:51:18.131Z,8.10
2023-02-17T02:54:18.763Z,8.10
2023-02-17T02:57:13.769Z,8.00
2023-02-17T02:59:57.995Z,7.90
2023-02-17T03:02:37.509Z,7.90
2023-02-17T03:05:16.516Z,7.80
2023-02-17T03:07:54.483Z,7.80
2023-02-17T03:10:23.520Z,7.80
2023-02-17T03:12:52.017Z,7.80
2023-02-17T03:15:29.890Z,7.80
2023-02-17T03:17:58.834Z,7.80
2023-02-17T03:20:33.800Z,7.80
2023-02-17T03:23:01.996Z,7.80
2023-02-17T03:25:30.186Z,8.00
2023-02-17T03:27:58.300Z,8.00
2023-02-17T03:30:26.484Z,8.10
2023-02-17T03:32:54.801Z,8.10
2023-02-17T03:35:23.002Z,8.10
2023-02-17T03:37:52.452Z,8.10
2023-02-17T03:40:20.757Z,8.20
2023-02-17T03:42:48.864Z,8.20
2023-02-17T03:45:17.173Z,8.20
2023-02-17T03:47:45.338Z,8.10
2023-02-17T03:50:13.486Z,8.20
2023-02-17T03:52:41.580Z,8.20
2023-02-17T03:55:11.174Z,8.20
2023-02-17T03:57:39.294Z,8.10
2023-02-17T04:00:09.428Z,8.10
2023-02-17T04:02:37.615Z,8.30
2023-02-17T04:05:06.385Z,8.20
2023-02-17T04:07:34.572Z,8.20
2023-02-17T04:10:05.166Z,8.20
2023-02-17T04:12:35.350Z,8.30
2023-02-17T04:15:03.501Z,8.30
2023-02-17T04:17:31.651Z,8.40
2023-02-17T04:19:59.942Z,8.30
2023-02-17T04:22:28.281Z,8.30
2023-02-17T04:24:56.377Z,8.30
2023-02-17T04:27:24.658Z,8.30
2023-02-17T04:29:54.572Z,8.30
2023-02-17T04:32:22.731Z,8.30
2023-02-17T04:34:50.834Z,8.40
2023-02-17T04:37:18.937Z,8.40
2023-02-17T04:39:47.028Z,8.40
2023-02-17T04:42:15.098Z,8.40
2023-02-17T04:44:43.208Z,8.40
2023-02-17T04:47:13.246Z,8.40
2023-02-17T04:49:41.339Z,8.40
2023-02-17T04:52:09.541Z,8.40
2023-02-17T04:54:37.909Z,8.40
2023-02-17T04:57:06.003Z,8.40
2023-02-17T04:59:34.161Z,8.40
2023-02-17T05:02:02.298Z,8.30
2023-02-17T05:04:31.961Z,8.40
2023-02-17T05:07:00.104Z,8.40
2023-02-17T05:09:28.608Z,8.40
2023-02-17T05:11:57.311Z,8.40
2023-02-17T05:14:25.508Z,8.40
2023-02-17T05:16:53.643Z,8.40
2023-02-17T05:19:21.756Z,8.40
2023-02-17T05:21:51.314Z,8.50
2023-02-17T05:24:19.476Z,8.50
2023-02-17T05:26:47.671Z,8.50
2023-02-17T05:29:16.030Z,8.50
2023-02-17T05:31:44.273Z,8.60
2023-02-17T05:34:13.271Z,8.50
2023-02-17T05:36:41.429Z,8.60
2023-02-17T05:39:10.843Z,8.60
2023-02-17T05:41:38.998Z,8.60
2023-02-17T05:44:07.115Z,8.60
2023-02-17T05:46:35.297Z,8.60
2023-02-17T05:49:03.401Z,8.70
2023-02-17T05:51:31.524Z,8.70
2023-02-17T05:53:59.645Z,8.70
2023-02-17T05:56:29.409Z,8.70
2023-02-17T05:58:57.684Z,8.80
2023-02-17T06:01:25.833Z,8.80
2023-02-17T06:03:54.011Z,8.80
2023-02-17T06:06:22.131Z,8.80
2023-02-17T06:08:50.294Z,8.80
2023-02-17T06:11:18.588Z,8.80
2023-02-17T06:13:48.330Z,8.80
2023-02-17T06:16:16.486Z,8.80
2023-02-17T06:18:44.637Z,8.80
2023-02-17T06:21:12.895Z,8.90
2023-02-17T06:23:41.020Z,8.90
2023-02-17T06:26:09.193Z,9.00
2023-02-17T06:28:37.401Z,9.10
2023-02-17T06:31:07.275Z,9.10
2023-02-17T06:33:35.447Z,9.10
2023-02-17T06:36:03.788Z,9.20
2023-02-17T06:38:32.061Z,9.20
2023-02-17T06:41:00.330Z,9.20
2023-02-17T06:43:28.470Z,9.10
2023-02-17T06:45:56.598Z,9.10
2023-02-17T06:48:26.159Z,9.10
2023-02-17T06:50:54.265Z,9.10
2023-02-17T06:53:22.393Z,9.20
2023-02-17T06:55:50.518Z,9.20
2023-02-17T06:58:18.640Z,9.20
2023-02-17T07:00:46.817Z,9.20
2023-02-17T07:03:14.993Z,9.30
2023-02-17T07:05:44.468Z,9.30
2023-02-17T07:08:12.606Z,9.30
2023-02-17T07:10:40.679Z,9.30
2023-02-17T07:13:08.801Z,9.30
2023-02-17T07:15:37.142Z,9.40
2023-02-17T07:18:06.668Z,9.30
2023-02-17T07:20:35.008Z,9.30
2023-02-17T07:23:04.513Z,9.40
2023-02-17T07:25:32.636Z,9.40
2023-02-17T07:28:01.328Z,9.40
2023-02-17T07:30:29.531Z,9.50
2023-02-17T07:32:57.752Z,9.50
2023-02-17T07:35:25.848Z,9.60
2023-02-17T07:37:54.000Z,9.70
2023-02-17T07:40:23.530Z,9.70
2023-02-17T07:42:51.782Z,9.60
2023-02-17T07:45:20.056Z,9.70
2023-02-17T07:47:48.181Z,9.70
2023-02-17T07:50:16.266Z,9.70
2023-02-17T07:52:44.445Z,9.70
2023-02-17T07:55:12.605Z,9.70
2023-02-17T07:57:42.111Z,9.70
2023-02-17T08:00:11.975Z,9.70
2023-02-17T08:02:40.092Z,9.70
2023-02-17T08:05:08.648Z,9.70
2023-02-17T08:07:36.742Z,9.80
2023-02-17T08:10:23.537Z,9.80
2023-02-17T08:13:10.699Z,9.90
2023-02-17T08:15:38.796Z,9.90
2023-02-17T08:18:06.906Z,9.90
2023-02-17T08:20:35.516Z,10.00
2023-02-17T08:23:04.642Z,10.00
2023-02-17T08:25:34.575Z,10.10
2023-02-17T08:28:06.512Z,10.10
2023-02-17T08:30:38.406Z,10.10
2023-02-17T08:33:06.968Z,10.10
2023-02-17T08:35:35.081Z,10.20
2023-02-17T08:38:03.358Z,10.20
2023-02-17T08:40:31.515Z,10.20
2023-02-17T08:43:00.790Z,10.30
2023-02-17T08:45:31.856Z,10.40
2023-02-17T08:48:00.214Z,10.50
2023-02-17T08:50:28.804Z,10.60
2023-02-17T08:52:57.189Z,10.60
2023-02-17T08:55:25.536Z,10.60
2023-02-17T08:57:54.141Z,10.50
2023-02-17T09:00:22.704Z,10.50
2023-02-17T09:02:52.303Z,10.40
2023-02-17T09:05:20.868Z,10.40
2023-02-17T09:07:49.052Z,10.50
2023-02-17T09:10:17.463Z,10.50
2023-02-17T09:12:45.693Z,10.40
2023-02-17T09:15:13.858Z,10.40
2023-02-17T09:17:42.734Z,10.40
2023-02-17T09:20:24.237Z,10.30
2023-02-17T09:22:53.222Z,10.30
2023-02-17T09:25:21.648Z,10.30
2023-02-17T09:27:50.061Z,10.40
2023-02-17T09:30:18.441Z,10.40
2023-02-17T09:32:46.624Z,10.40
2023-02-17T09:35:18.965Z,10.50
2023-02-17T09:37:47.401Z,10.60
2023-02-17T09:40:22.437Z,10.70
2023-02-17T09:42:50.983Z,10.80
2023-02-17T09:45:25.915Z,10.80
2023-02-17T09:48:02.364Z,10.90
2023-02-17T09:50:43.764Z,11.00
2023-02-17T09:53:25.282Z,11.00
2023-02-17T09:55:58.373Z,11.00
2023-02-17T09:58:31.837Z,11.00
2023-02-17T10:01:04.176Z,11.00
2023-02-17T10:03:40.643Z,11.00
2023-02-17T10:06:19.619Z,10.90
2023-02-17T10:08:54.837Z,10.90
2023-02-17T10:11:32.907Z,10.80
2023-02-17T10:14:13.643Z,10.80
2023-02-17T10:16:50.386Z,10.90
2023-02-17T10:19:26.722Z,10.80
2023-02-17T10:22:08.079Z,10.80
2023-02-17T10:24:36.269Z,10.80
2023-02-17T10:27:24.341Z,10.80
2023-02-17T10:30:09.745Z,10.80
2023-02-17T10:32:59.941Z,10.80
2023-02-17T10:35:49.313Z,10.70
2023-02-17T10:38:34.419Z,10.80
2023-02-17T10:41:05.729Z,10.90
2023-02-17T10:43:34.741Z,10.90
2023-02-17T10:46:07.599Z,11.10
2023-02-17T10:48:43.434Z,11.20
2023-02-17T10:51:17.401Z,11.30
2023-02-17T10:53:53.505Z,11.40
2023-02-17T10:56:28.541Z,11.50
2023-02-17T10:59:02.824Z,11.60
2023-02-17T11:01:31.206Z,11.70
2023-02-17T11:04:05.247Z,11.80
2023-02-17T11:06:37.667Z,11.80
2023-02-17T11:09:20.149Z,11.90
2023-02-17T11:11:59.327Z,12.00
2023-02-17T11:14:30.550Z,12.00
2023-02-17T11:17:02.866Z,12.10
2023-02-17T11:19:34.476Z,12.00
2023-02-17T11:22:05.853Z,12.00
2023-02-17T11:24:38.597Z,11.90
2023-02-17T11:27:11.520Z,11.90
2023-02-17T11:29:39.654Z,11.90
2023-02-17T11:32:12.357Z,11.80
2023-02-17T11:34:43.286Z,11.80
2023-02-17T11:37:24.392Z,11.80
2023-02-17T11:39:56.480Z,11.80
2023-02-17T11:42:27.646Z,11.80
2023-02-17T11:44:59.406Z,11.90
2023-02-17T11:47:40.586Z,11.80
2023-02-17T11:50:40.687Z,12.00
2023-02-17T11:53:27.249Z,12.10
2023-02-17T11:56:14.101Z,12.20
2023-02-17T11:59:18.390Z,12.30
2023-02-17T12:02:15.148Z,12.40
2023-02-17T12:04:58.203Z,12.40
2023-02-17T12:07:47.577Z,12.50
2023-02-17T12:10:26.882Z,12.60
2023-02-17T12:13:19.289Z,12.60
2023-02-17T12:16:18.047Z,12.60
2023-02-17T12:19:00.267Z,12.70
2023-02-17T12:21:54.382Z,12.70
2023-02-17T12:24:51.966Z,12.70
2023-02-17T12:27:40.946Z,12.70
2023-02-17T12:30:29.055Z,12.70
2023-02-17T12:33:28.202Z,12.60
2023-02-17T12:36:03.107Z,12.50
2023-02-17T12:38:35.798Z,12.50
2023-02-17T12:41:10.488Z,12.40
2023-02-17T12:43:48.049Z,12.50
2023-02-17T12:46:25.304Z,12.50
2023-02-17T12:49:00.755Z,12.60
2023-02-17T12:51:34.712Z,12.60
2023-02-17T12:54:15.475Z,12.70
2023-02-17T12:57:09.032Z,12.60
2023-02-17T12:59:40.233Z,12.60
2023-02-17T13:02:14.258Z,12.60
2023-02-17T13:04:45.365Z,12.50
2023-02-17T13:07:42.069Z,12.50
2023-02-17T13:10:29.842Z,12.60
2023-02-17T13:13:03.450Z,12.60
2023-02-17T13:15:49.603Z,12.70
2023-02-17T13:18:30.488Z,12.60
2023-02-17T13:21:15.719Z,12.70
2023-02-17T13:23:47.975Z,12.60
2023-02-17T13:26:35.695Z,12.60
2023-02-17T13:29:36.529Z,12.60
2023-02-17T13:32:08.873Z,12.50
2023-02-17T13:34:43.286Z,12.50
2023-02-17T13:37:28.043Z,12.50
2023-02-17T13:39:56.164Z,12.50
2023-02-17T13:42:40.191Z,12.60
2023-02-17T13:45:26.384Z,12.60
2023-02-17T13:47:57.192Z,12.50
2023-02-17T13:50:34.977Z,12.70
2023-02-17T13:53:07.217Z,12.70
2023-02-17T13:55:36.410Z,12.80
2023-02-17T13:58:04.661Z,12.80
2023-02-17T14:00:33.582Z,12.90
2023-02-17T14:03:17.315Z,13.00
2023-02-17T14:05:50.499Z,13.00
2023-02-17T14:08:28.479Z,13.00
2023-02-17T14:10:57.549Z,13.10
2023-02-17T14:13:26.274Z,13.10
2023-02-17T14:15:58.329Z,13.10
2023-02-17T14:18:36.291Z,13.10
2023-02-17T14:21:09.956Z,13.10
2023-02-17T14:23:48.997Z,13.10
2023-02-17T14:26:31.512Z,13.20
2023-02-17T14:29:02.267Z,13.30
2023-02-17T14:31:30.855Z,13.40
2023-02-17T14:34:02.845Z,13.40
2023-02-17T14:36:37.158Z,13.50
2023-02-17T14:39:08.939Z,13.60
2023-02-17T14:41:37.103Z,13.70
2023-02-17T14:44:06.022Z,13.70
2023-02-17T14:46:34.302Z,13.70
2023-02-17T14:49:02.804Z,13.70
2023-02-17T14:51:37.239Z,13.80
2023-02-17T14:54:15.033Z,13.80
2023-02-17T14:56:50.236Z,13.80
2023-02-17T14:59:18.331Z,13.70
2023-02-17T15:01:46.423Z,13.70
2023-02-17T15:04:14.408Z,13.70
2023-02-17T15:06:48.116Z,13.60
2023-02-17T15:09:21.230Z,13.60
2023-02-17T15:11:50.482Z,13.50
2023-02-17T15:14:21.795Z,13.50
2023-02-17T15:16:50.127Z,13.60
2023-02-17T15:19:18.858Z,13.60
2023-02-17T15:21:51.629Z,13.60
2023-02-17T15:24:26.346Z,13.50
2023-02-17T15:26:57.030Z,13.60
2023-02-17T15:29:27.297Z,13.50
2023-02-17T15:31:58.096Z,13.50
2023-02-17T15:34:32.055Z,13.50
2023-02-17T15:37:02.898Z,13.50
2023-02-17T15:39:31.051Z,13.50
2023-02-17T15:42:06.999Z,13.50
2023-02-17T15:44:43.708Z,13.50
2023-02-17T15:47:18.289Z,13.50
2023-02-17T15:49:47.309Z,13.50
2023-02-17T15:52:17.082Z,13.50
2023-02-17T15:54:46.159Z,13.50
2023-02-17T15:57:23.725Z,13.50
2023-02-17T15:59:54.800Z,13.50
2023-02-17T16:02:25.606Z,13.50
2023-02-17T16:04:53.797Z,13.50
2023-02-17T16:07:23.260Z,13.40
2023-02-17T16:09:51.305Z,13.30
2023-02-17T16:12:27.165Z,13.40
2023-02-17T16:14:56.682Z,13.40
2023-02-17T16:17:26.284Z,13.40
2023-02-17T16:19:55.728Z,13.30
2023-02-17T16:22:25.194Z,13.30
2023-02-17T16:24:53.398Z,13.20
2023-02-17T16:27:21.574Z,13.20
2023-02-17T16:29:49.713Z,13.30
2023-02-17T16:32:17.935Z,13.20
2023-02-17T16:34:46.104Z,13.30
2023-02-17T16:37:18.319Z,13.40
2023-02-17T16:39:48.160Z,13.30
2023-02-17T16:42:16.290Z,13.30
2023-02-17T16:44:44.432Z,13.30
2023-02-17T16:47:22.382Z,13.30
2023-02-17T16:49:51.975Z,13.30
2023-02-17T16:52:25.988Z,13.20
2023-02-17T16:54:56.040Z,12.90
2023-02-17T16:57:24.818Z,12.70
2023-02-17T16:59:53.342Z,12.50
2023-02-17T17:02:22.056Z,12.30
2023-02-17T17:04:50.168Z,12.10
2023-02-17T17:07:18.437Z,12.00
2023-02-17T17:10:06.965Z,11.90
2023-02-17T17:12:36.339Z,11.80
2023-02-17T17:15:04.902Z,11.70
2023-02-17T17:17:40.826Z,11.60
2023-02-17T17:20:14.827Z,11.60
2023-02-17T17:22:43.180Z,11.60
2023-02-17T17:25:11.639Z,11.50
2023-02-17T17:27:41.619Z,11.50
2023-02-17T17:30:18.972Z,11.50
2023-02-17T17:32:47.399Z,11.50
2023-02-17T17:35:16.921Z,11.50
2023-02-17T17:37:45.273Z,11.50
2023-02-17T17:40:21.533Z,11.50
2023-02-17T17:42:51.707Z,11.40
2023-02-17T17:45:20.156Z,11.30
2023-02-17T17:47:48.185Z,11.40
2023-02-17T17:50:21.344Z,11.30
2023-02-17T17:52:49.861Z,11.30
2023-02-17T17:55:18.137Z,11.30
2023-02-17T17:57:47.971Z,11.30
2023-02-17T18:00:19.638Z,11.30
2023-02-17T18:02:47.802Z,11.30
2023-02-17T18:05:16.022Z,11.30
2023-02-17T18:07:47.670Z,11.30
2023-02-17T18:10:16.594Z,11.30
2023-02-17T18:12:47.834Z,11.30
2023-02-17T18:15:18.657Z,11.30
2023-02-17T18:17:48.885Z,11.30
2023-02-17T18:20:16.993Z,11.30
2023-02-17T18:22:45.297Z,11.30
2023-02-17T18:25:13.449Z,11.30
2023-02-17T18:27:44.622Z,11.30
2023-02-17T18:30:16.156Z,11.30
2023-02-17T18:32:45.785Z,11.20
2023-02-17T18:35:14.791Z,11.20
2023-02-17T18:37:43.869Z,11.20
2023-02-17T18:40:14.775Z,11.20
2023-02-17T18:42:45.451Z,11.20
2023-02-17T18:45:14.565Z,11.20
2023-02-17T18:47:43.802Z,11.20
2023-02-17T18:50:15.928Z,11.20
2023-02-17T18:52:45.271Z,11.10
2023-02-17T18:55:14.326Z,11.20
2023-02-17T18:57:44.687Z,11.30
2023-02-17T19:00:16.598Z,11.30
2023-02-17T19:02:44.859Z,11.30
2023-02-17T19:05:17.404Z,11.30
2023-02-17T19:07:45.728Z,11.30
2023-02-17T19:10:15.254Z,11.40
2023-02-17T19:12:43.309Z,11.30
2023-02-17T19:15:13.830Z,11.30
2023-02-17T19:17:42.207Z,11.30
2023-02-17T19:20:12.008Z,11.30
2023-02-17T19:22:41.473Z,11.20
2023-02-17T19:25:10.325Z,11.20
2023-02-17T19:27:41.105Z,11.10
2023-02-17T19:30:11.296Z,11.10
2023-02-17T19:32:39.514Z,11.10
2023-02-17T19:35:11.293Z,11.00
2023-02-17T19:37:41.107Z,10.90
2023-02-17T19:40:10.345Z,10.80
2023-02-17T19:42:40.051Z,10.70
2023-02-17T19:45:08.912Z,10.60
2023-02-17T19:47:37.056Z,10.60
2023-02-17T19:50:06.230Z,10.80
2023-02-17T19:52:34.316Z,10.80
2023-02-17T19:55:03.877Z,10.90
2023-02-17T19:57:32.107Z,10.90
2023-02-17T20:00:00.270Z,11.00
2023-02-17T20:02:28.423Z,11.10
2023-02-17T20:04:56.578Z,11.30
2023-02-17T20:07:24.759Z,11.50
2023-02-17T20:09:52.976Z,11.60
2023-02-17T20:12:22.578Z,11.60
2023-02-17T20:14:50.723Z,11.60
2023-02-17T20:17:18.936Z,11.70
2023-02-17T20:19:47.059Z,11.80
2023-02-17T20:22:15.164Z,11.80
2023-02-17T20:24:43.295Z,11.80
2023-02-17T20:27:11.433Z,11.80
2023-02-17T20:29:42.693Z,11.80
2023-02-17T20:32:10.944Z,11.80
2023-02-17T20:34:40.993Z,11.80
2023-02-17T20:37:10.028Z,11.80
2023-02-17T20:39:40.097Z,11.70
2023-02-17T20:42:08.310Z,11.60
2023-02-17T20:44:36.767Z,11.40
2023-02-17T20:47:07.550Z,11.20
2023-02-17T20:49:36.275Z,11.00
2023-02-17T20:52:05.730Z,10.90
2023-02-17T20:54:34.608Z,10.90
2023-02-17T20:57:02.811Z,10.90
2023-02-17T20:59:30.918Z,10.80
2023-02-17T21:01:59.065Z,10.70
2023-02-17T21:04:28.553Z,10.70
2023-02-17T21:06:56.668Z,10.70
2023-02-17T21:09:25.037Z,10.70
2023-02-17T21:11:53.159Z,10.70
2023-02-17T21:14:21.245Z,10.50
2023-02-17T21:16:49.820Z,10.20
2023-02-17T21:19:19.257Z,10.10
2023-02-17T21:21:48.832Z,9.90
2023-02-17T21:24:16.983Z,9.80
2023-02-17T21:26:45.115Z,9.80
2023-02-17T21:29:13.293Z,9.70
2023-02-17T21:31:41.513Z,9.70
2023-02-17T21:34:09.939Z,9.60
2023-02-17T21:36:38.197Z,9.50
2023-02-17T21:39:07.784Z,9.50
2023-02-17T21:41:36.016Z,9.50
2023-02-17T21:44:21.594Z,9.50
2023-02-17T21:46:49.762Z,9.50
2023-02-17T21:49:17.866Z,9.50
2023-02-17T21:51:46.201Z,9.50
2023-02-17T21:54:15.828Z,9.40
2023-02-17T21:56:43.930Z,9.40
2023-02-17T21:59:12.136Z,9.30
2023-02-17T22:01:40.556Z,9.30
2023-02-17T22:04:09.294Z,9.30
2023-02-17T22:06:40.292Z,9.30
2023-02-17T22:09:12.557Z,9.30
2023-02-17T22:11:43.849Z,9.40
2023-02-17T22:14:16.781Z,9.40
2023-02-17T22:16:46.276Z,9.30
2023-02-17T22:19:17.650Z,9.40
2023-02-17T22:21:46.801Z,9.30
2023-02-17T22:24:15.661Z,9.30
2023-02-17T22:26:45.264Z,9.40
2023-02-17T22:29:13.367Z,9.30
2023-02-17T22:31:41.738Z,9.30
2023-02-17T22:34:10.912Z,9.20
2023-02-17T22:36:39.315Z,9.20
2023-02-17T22:39:09.587Z,9.20
2023-02-17T22:41:38.804Z,9.20
2023-02-17T22:44:09.340Z,9.10
2023-02-17T22:46:37.633Z,9.10
2023-02-17T22:49:06.408Z,9.00
2023-02-17T22:51:39.169Z,9.00
2023-02-17T22:54:08.883Z,9.00
2023-02-17T22:56:37.459Z,9.00
2023-02-17T22:59:07.116Z,9.00
2023-02-17T23:01:37.520Z,8.90
2023-02-17T23:04:07.029Z,8.90
2023-02-17T23:06:38.457Z,8.90
2023-02-17T23:09:10.012Z,8.90
2023-02-17T23:11:54.795Z,8.90
2023-02-17T23:14:28.762Z,8.90
2023-02-17T23:17:01.120Z,8.80
2023-02-17T23:19:30.991Z,8.80
2023-02-17T23:22:02.707Z,8.80
2023-02-17T23:24:31.049Z,8.80
2023-02-17T23:27:01.357Z,8.80
2023-02-17T23:29:32.116Z,8.80
2023-02-17T23:32:00.749Z,8.80
2023-02-17T23:34:29.240Z,8.80
2023-02-17T23:36:59.513Z,8.80
2023-02-17T23:39:27.897Z,8.90
2023-02-17T23:41:56.025Z,8.90
2023-02-17T23:44:24.186Z,8.90
2023-02-17T23:46:53.672Z,8.90
2023-02-17T23:49:21.921Z,9.00
2023-02-17T23:51:50.863Z,8.90
2023-02-17T23:54:19.045Z,8.90
2023-02-17T23:56:47.166Z,8.80
2023-02-17T23:59:15.405Z,8.70
